createdAt,value
2023-03-07T00:01:44.426Z,97274.69
2023-03-07T00:04:10.962Z,97275.94
2023-03-07T00:06:37.522Z,97272.88
2023-03-07T00:09:04.029Z,97269.81
2023-03-07T00:11:30.565Z,97276.34
2023-03-07T00:13:57.082Z,97269.63
2023-03-07T00:16:24.734Z,97274.50
2023-03-07T00:18:51.309Z,97277.78
2023-03-07T00:21:21.059Z,97264.59
2023-03-07T00:23:48.217Z,97267.00
2023-03-07T00:26:20.829Z,97259.78
2023-03-07T00:28:49.365Z,97263.44
2023-03-07T00:31:16.778Z,97259.25
2023-03-07T00:33:43.416Z,97261.38
2023-03-07T00:36:16.342Z,97256.34
2023-03-07T00:38:43.022Z,97253.59
2023-03-07T00:41:12.368Z,97245.28
2023-03-07T00:43:39.495Z,97243.34
2023-03-07T00:46:06.194Z,97246.69
2023-03-07T00:48:38.533Z,97247.28
2023-03-07T00:51:07.537Z,97243.44
2023-03-07T00:53:35.073Z,97237.59
2023-03-07T00:56:07.607Z,97233.88
2023-03-07T00:58:36.294Z,97237.69
2023-03-07T01:01:05.908Z,97235.59
2023-03-07T01:03:34.283Z,97240.09
2023-03-07T01:06:06.231Z,97230.50
2023-03-07T01:08:33.421Z,97231.63
2023-03-07T01:11:01.994Z,97229.56
2023-03-07T01:13:29.573Z,97223.88
2023-03-07T01:15:56.646Z,97231.34
2023-03-07T01:18:23.192Z,97230.41
2023-03-07T01:20:49.696Z,97229.13
2023-03-07T01:23:16.392Z,97224.31
2023-03-07T01:25:43.456Z,97228.41
2023-03-07T01:28:13.765Z,97221.16
2023-03-07T01:30:41.432Z,97223.25
2023-03-07T01:33:09.962Z,97221.13
2023-03-07T01:35:40.108Z,97225.16
2023-03-07T01:38:06.779Z,97217.69
2023-03-07T01:40:38.218Z,97216.84
2023-03-07T01:43:24.543Z,97208.75
2023-03-07T01:46:30.828Z,97203.38
2023-03-07T01:49:03.789Z,97199.31
2023-03-07T01:51:32.649Z,97200.66
2023-03-07T01:54:04.391Z,97206.88
2023-03-07T01:56:31.411Z,97196.69
2023-03-07T01:58:58.320Z,97191.38
2023-03-07T02:01:27.383Z,97194.16
2023-03-07T02:04:09.594Z,97191.22
2023-03-07T02:06:38.785Z,97190.41
2023-03-07T02:09:13.884Z,97187.53
2023-03-07T02:11:43.537Z,97167.88
2023-03-07T02:14:10.788Z,97178.75
2023-03-07T02:16:38.858Z,97168.81
2023-03-07T02:19:29.595Z,97170.47
2023-03-07T02:22:11.121Z,97172.97
2023-03-07T02:24:45.630Z,97168.28
2023-03-07T02:27:13.411Z,97157.69
2023-03-07T02:29:40.638Z,97161.06
2023-03-07T02:32:09.009Z,97162.81
2023-03-07T02:34:35.741Z,97156.09
2023-03-07T02:37:12.461Z,97153.50
2023-03-07T02:39:42.908Z,97152.03
2023-03-07T02:42:22.737Z,97148.91
2023-03-07T02:45:00.461Z,97147.59
2023-03-07T02:47:29.884Z,97145.91
2023-03-07T02:49:57.871Z,97150.66
2023-03-07T02:52:24.592Z,97150.44
2023-03-07T02:54:51.103Z,97140.31
2023-03-07T02:57:18.260Z,97144.00
2023-03-07T02:59:44.775Z,97139.00
2023-03-07T03:02:11.401Z,97136.19
2023-03-07T03:04:37.919Z,97140.50
2023-03-07T03:07:04.815Z,97135.63
2023-03-07T03:09:31.509Z,97141.25
2023-03-07T03:11:58.259Z,97142.59
2023-03-07T03:14:27.984Z,97134.66
2023-03-07T03:16:54.718Z,97135.50
2023-03-07T03:19:21.585Z,97127.97
2023-03-07T03:21:48.766Z,97124.84
2023-03-07T03:24:16.452Z,97119.16
2023-03-07T03:26:44.708Z,97123.38
2023-03-07T03:29:11.915Z,97115.09
2023-03-07T03:31:39.319Z,97114.34
2023-03-07T03:34:06.010Z,97110.34
2023-03-07T03:36:33.656Z,97110.69
2023-03-07T03:39:06.942Z,97110.75
2023-03-07T03:41:33.489Z,97113.31
2023-03-07T03:44:00.140Z,97109.78
2023-03-07T03:46:30.764Z,97100.88
2023-03-07T03:48:57.867Z,97103.28
2023-03-07T03:51:27.320Z,97102.03
2023-03-07T03:53:58.165Z,97094.88
2023-03-07T03:56:26.504Z,97087.88
2023-03-07T03:58:55.286Z,97084.41
2023-03-07T04:01:24.370Z,97090.06
2023-03-07T04:03:52.134Z,97086.34
2023-03-07T04:06:25.287Z,97084.78
2023-03-07T04:08:53.106Z,97087.06
2023-03-07T04:11:21.395Z,97077.81
2023-03-07T04:13:48.144Z,97072.38
2023-03-07T04:16:15.938Z,97076.13
2023-03-07T04:18:42.894Z,97079.00
2023-03-07T04:21:13.016Z,97071.50
2023-03-07T04:23:40.592Z,97075.59
2023-03-07T04:26:08.963Z,97068.13
2023-03-07T04:28:44.823Z,97062.38
2023-03-07T04:31:21.645Z,97057.97
2023-03-07T04:33:50.132Z,97058.75
2023-03-07T04:36:18.077Z,97054.97
2023-03-07T04:38:47.557Z,97060.84
2023-03-07T04:41:16.340Z,97051.13
2023-03-07T04:43:43.414Z,97062.19
2023-03-07T04:46:12.035Z,97053.66
2023-03-07T04:48:38.966Z,97056.81
2023-03-07T04:51:06.273Z,97053.41
2023-03-07T04:53:33.144Z,97058.63
2023-03-07T04:56:01.419Z,97059.63
2023-03-07T04:58:30.158Z,97057.34
2023-03-07T05:00:57.619Z,97056.63
2023-03-07T05:03:26.459Z,97049.56
2023-03-07T05:05:53.971Z,97051.44
2023-03-07T05:08:22.381Z,97052.84
2023-03-07T05:10:49.605Z,97049.28
2023-03-07T05:13:16.178Z,97043.28
2023-03-07T05:15:43.167Z,97039.31
2023-03-07T05:18:09.804Z,97040.00
2023-03-07T05:20:36.294Z,97034.63
2023-03-07T05:23:02.800Z,97031.94
2023-03-07T05:25:29.602Z,97025.31
2023-03-07T05:27:56.108Z,97027.34
2023-03-07T05:30:22.624Z,97019.56
2023-03-07T05:32:49.662Z,97024.06
2023-03-07T05:35:16.260Z,97010.81
2023-03-07T05:37:44.215Z,97017.34
2023-03-07T05:40:11.511Z,97013.59
2023-03-07T05:42:41.583Z,97002.25
2023-03-07T05:45:08.691Z,97009.19
2023-03-07T05:47:35.706Z,97006.22
2023-03-07T05:50:02.324Z,97003.44
2023-03-07T05:52:29.074Z,97011.13
2023-03-07T05:54:55.873Z,97010.88
2023-03-07T05:57:23.848Z,97014.00
2023-03-07T05:59:50.677Z,97011.78
2023-03-07T06:02:17.467Z,97014.47
2023-03-07T06:04:44.162Z,97012.81
2023-03-07T06:07:10.606Z,97017.34
2023-03-07T06:09:37.176Z,97007.09
2023-03-07T06:12:04.200Z,97008.72
2023-03-07T06:14:32.200Z,97000.06
2023-03-07T06:16:58.777Z,97012.81
2023-03-07T06:19:25.676Z,96998.06
2023-03-07T06:21:52.389Z,97001.59
2023-03-07T06:24:19.607Z,97006.81
2023-03-07T06:26:46.720Z,97007.16
2023-03-07T06:29:14.029Z,97008.72
2023-03-07T06:31:40.709Z,97018.19
2023-03-07T06:34:08.562Z,97014.31
2023-03-07T06:36:35.350Z,97019.19
2023-03-07T06:39:02.174Z,97018.84
2023-03-07T06:41:28.929Z,97025.78
2023-03-07T06:43:58.903Z,97022.53
2023-03-07T06:46:28.112Z,97027.38
2023-03-07T06:48:55.808Z,97023.31
2023-03-07T06:51:23.487Z,97029.41
2023-03-07T06:53:50.676Z,97029.00
2023-03-07T06:56:17.564Z,97026.13
2023-03-07T06:58:44.276Z,97024.94
2023-03-07T07:01:20.941Z,97041.38
2023-03-07T07:03:50.179Z,97034.19
2023-03-07T07:06:17.433Z,97032.66
2023-03-07T07:08:43.969Z,97030.97
2023-03-07T07:11:11.153Z,97026.41
2023-03-07T07:13:38.301Z,97028.63
2023-03-07T07:16:07.778Z,97030.06
2023-03-07T07:18:36.485Z,97028.28
2023-03-07T07:21:05.997Z,97029.09
2023-03-07T07:23:32.995Z,97033.88
2023-03-07T07:26:00.440Z,97027.50
2023-03-07T07:28:27.299Z,97029.28
2023-03-07T07:30:54.053Z,97032.53
2023-03-07T07:33:20.734Z,97031.53
2023-03-07T07:35:50.305Z,97029.88
2023-03-07T07:38:17.555Z,97037.78
2023-03-07T07:40:45.013Z,97032.13
2023-03-07T07:43:15.521Z,97030.59
2023-03-07T07:45:47.186Z,97029.56
2023-03-07T07:48:17.296Z,97021.81
2023-03-07T07:50:46.032Z,97021.94
2023-03-07T07:53:13.443Z,97021.28
2023-03-07T07:55:40.616Z,97020.72
2023-03-07T07:58:07.229Z,97021.16
2023-03-07T08:00:33.845Z,97020.00
2023-03-07T08:03:01.024Z,97012.28
2023-03-07T08:05:27.553Z,97007.41
2023-03-07T08:07:54.056Z,97009.53
2023-03-07T08:10:20.632Z,96994.09
2023-03-07T08:12:53.611Z,97006.59
2023-03-07T08:15:23.997Z,96997.84
2023-03-07T08:17:51.287Z,96996.72
2023-03-07T08:20:18.420Z,96992.47
2023-03-07T08:22:44.943Z,96992.53
2023-03-07T08:25:17.862Z,96998.38
2023-03-07T08:27:44.375Z,96987.03
2023-03-07T08:30:11.530Z,96986.72
2023-03-07T08:32:38.188Z,96986.97
2023-03-07T08:35:05.448Z,96992.84
2023-03-07T08:37:32.001Z,96993.78
2023-03-07T08:39:58.489Z,96984.47
2023-03-07T08:42:25.075Z,96990.13
2023-03-07T08:44:51.567Z,96986.50
2023-03-07T08:47:18.052Z,96984.72
2023-03-07T08:49:44.565Z,96978.38
2023-03-07T08:52:11.091Z,96975.28
2023-03-07T08:54:37.644Z,96978.78
2023-03-07T08:57:04.708Z,96976.34
2023-03-07T08:59:31.228Z,96974.97
2023-03-07T09:01:57.789Z,96967.00
2023-03-07T09:04:24.830Z,96970.59
2023-03-07T09:06:51.755Z,96961.34
2023-03-07T09:09:18.563Z,96964.97
2023-03-07T09:11:45.203Z,96964.16
2023-03-07T09:14:11.848Z,96964.78
2023-03-07T09:16:38.622Z,96967.75
2023-03-07T09:19:05.832Z,96960.03
2023-03-07T09:21:32.787Z,96959.75
2023-03-07T09:23:59.448Z,96957.66
2023-03-07T09:26:26.082Z,96952.06
2023-03-07T09:28:52.724Z,96963.59
2023-03-07T09:31:19.396Z,96952.94
2023-03-07T09:33:47.049Z,96947.75
2023-03-07T09:36:14.776Z,96942.44
2023-03-07T09:38:41.312Z,96952.91
2023-03-07T09:41:25.658Z,96948.91
2023-03-07T09:44:07.682Z,96948.69
2023-03-07T09:47:10.867Z,96950.69
2023-03-07T09:49:45.143Z,96942.41
2023-03-07T09:52:15.853Z,96940.56
2023-03-07T09:54:50.079Z,96941.56
2023-03-07T09:57:26.513Z,96941.75
2023-03-07T10:00:00.697Z,96931.53
2023-03-07T10:02:39.163Z,96919.03
2023-03-07T10:05:08.346Z,96912.31
2023-03-07T10:07:35.574Z,96922.38
2023-03-07T10:10:06.695Z,96912.66
2023-03-07T10:12:54.317Z,96905.59
2023-03-07T10:15:35.966Z,96896.50
2023-03-07T10:18:36.554Z,96888.66
2023-03-07T10:21:28.207Z,96894.06
2023-03-07T10:24:11.298Z,96885.38
2023-03-07T10:27:05.438Z,96880.59
2023-03-07T10:29:41.843Z,96887.88
2023-03-07T10:32:35.320Z,96885.00
2023-03-07T10:35:10.577Z,96905.53
2023-03-07T10:37:48.262Z,96893.03
2023-03-07T10:40:23.557Z,96911.94
2023-03-07T10:42:50.040Z,96900.00
2023-03-07T10:45:17.089Z,96903.09
2023-03-07T10:47:43.663Z,96894.03
2023-03-07T10:50:24.185Z,96882.03
2023-03-07T10:53:40.217Z,96894.63
2023-03-07T10:56:15.787Z,96891.81
2023-03-07T10:59:03.865Z,96885.44
2023-03-07T11:01:32.158Z,96882.72
2023-03-07T11:04:07.146Z,96880.41
2023-03-07T11:06:44.633Z,96893.91
2023-03-07T11:09:23.294Z,96879.88
2023-03-07T11:11:54.027Z,96878.69
2023-03-07T11:14:22.006Z,96880.47
2023-03-07T11:16:52.229Z,96876.84
2023-03-07T11:19:32.630Z,96872.50
2023-03-07T11:22:01.394Z,96875.44
2023-03-07T11:24:31.092Z,96867.66
2023-03-07T11:26:59.384Z,96862.25
2023-03-07T11:29:28.528Z,96859.94
2023-03-07T11:32:22.686Z,96857.91
2023-03-07T11:34:59.378Z,96853.03
2023-03-07T11:37:39.436Z,96854.13
2023-03-07T11:40:22.567Z,96848.88
2023-03-07T11:43:22.894Z,96856.41
2023-03-07T11:45:56.376Z,96844.81
2023-03-07T11:48:35.995Z,96849.31
2023-03-07T11:51:04.721Z,96846.69
2023-03-07T11:53:47.878Z,96836.34
2023-03-07T11:56:40.598Z,96837.34
2023-03-07T11:59:29.332Z,96834.34
2023-03-07T12:02:03.118Z,96828.88
2023-03-07T12:04:41.765Z,96825.03
2023-03-07T12:07:33.477Z,96826.84
2023-03-07T12:10:21.834Z,96823.91
2023-03-07T12:13:01.308Z,96818.41
2023-03-07T12:15:51.709Z,96809.22
2023-03-07T12:18:32.830Z,96814.78
2023-03-07T12:21:17.930Z,96819.56
2023-03-07T12:23:52.812Z,96801.38
2023-03-07T12:26:43.835Z,96801.19
2023-03-07T12:29:19.352Z,96803.06
2023-03-07T12:31:51.364Z,96790.72
2023-03-07T12:34:27.932Z,96784.28
2023-03-07T12:37:01.012Z,96783.63
2023-03-07T12:40:02.088Z,96785.59
2023-03-07T12:43:00.285Z,96785.47
2023-03-07T12:45:35.963Z,96789.56
2023-03-07T12:48:20.132Z,96782.69
2023-03-07T12:50:54.649Z,96791.91
2023-03-07T12:53:55.089Z,96792.66
2023-03-07T12:57:03.672Z,96781.03
2023-03-07T12:59:35.130Z,96770.50
2023-03-07T13:02:06.217Z,96779.63
2023-03-07T13:04:37.038Z,96766.50
2023-03-07T13:07:13.130Z,96783.78
2023-03-07T13:09:42.601Z,96779.59
2023-03-07T13:12:24.380Z,96779.66
2023-03-07T13:14:57.075Z,96784.19
2023-03-07T13:17:26.548Z,96777.03
2023-03-07T13:19:55.623Z,96783.53
2023-03-07T13:22:22.001Z,96776.66
2023-03-07T13:24:52.118Z,96788.75
2023-03-07T13:27:19.711Z,96792.75
2023-03-07T13:30:04.915Z,96802.09
2023-03-07T13:32:55.978Z,96795.09
2023-03-07T13:35:48.164Z,96800.63
2023-03-07T13:38:23.508Z,96798.81
2023-03-07T13:41:01.278Z,96808.72
2023-03-07T13:43:28.509Z,96834.72
2023-03-07T13:45:59.187Z,96823.44
2023-03-07T13:48:28.629Z,96828.28
2023-03-07T13:50:54.986Z,96832.50
2023-03-07T13:53:33.288Z,96835.91
2023-03-07T13:56:15.214Z,96838.53
2023-03-07T13:59:09.655Z,96830.47
2023-03-07T14:01:42.064Z,96839.72
2023-03-07T14:04:17.028Z,96845.34
2023-03-07T14:06:56.754Z,96838.75
2023-03-07T14:09:40.280Z,96837.53
2023-03-07T14:13:05.100Z,96837.72
2023-03-07T14:15:57.052Z,96842.94
2023-03-07T14:18:26.456Z,96847.19
2023-03-07T14:21:27.356Z,96847.56
2023-03-07T14:24:14.656Z,96844.13
2023-03-07T14:26:55.572Z,96841.50
2023-03-07T14:29:27.536Z,96842.84
2023-03-07T14:31:59.320Z,96859.63
2023-03-07T14:34:32.214Z,96854.66
2023-03-07T14:37:06.526Z,96859.72
2023-03-07T14:39:42.904Z,96853.19
2023-03-07T14:42:33.690Z,96848.81
2023-03-07T14:45:12.317Z,96842.97
2023-03-07T14:48:11.508Z,96841.09
2023-03-07T14:50:44.152Z,96829.44
2023-03-07T14:53:22.814Z,96820.97
2023-03-07T14:55:52.517Z,96825.81
2023-03-07T14:58:22.327Z,96811.75
2023-03-07T15:01:15.927Z,96822.25
2023-03-07T15:03:55.116Z,96812.38
2023-03-07T15:06:25.263Z,96816.97
2023-03-07T15:08:55.268Z,96809.75
2023-03-07T15:11:44.742Z,96809.97
2023-03-07T15:14:21.647Z,96800.25
2023-03-07T15:16:51.036Z,96798.66
2023-03-07T15:19:31.511Z,96799.03
2023-03-07T15:22:01.302Z,96794.84
2023-03-07T15:24:34.112Z,96789.53
2023-03-07T15:27:01.596Z,96787.56
2023-03-07T15:29:33.060Z,96790.38
2023-03-07T15:32:07.175Z,96779.72
2023-03-07T15:34:36.819Z,96789.44
2023-03-07T15:37:58.601Z,96779.59
2023-03-07T15:40:36.151Z,96776.97
2023-03-07T15:43:04.417Z,96783.59
2023-03-07T15:45:36.673Z,96779.13
2023-03-07T15:48:24.214Z,96785.81
2023-03-07T15:51:00.573Z,96790.63
2023-03-07T15:53:34.151Z,96794.84
2023-03-07T15:56:05.037Z,96789.03
2023-03-07T15:58:35.130Z,96777.97
2023-03-07T16:01:19.566Z,96780.75
2023-03-07T16:04:04.450Z,96766.84
2023-03-07T16:06:45.549Z,96775.28
2023-03-07T16:09:17.429Z,96785.97
2023-03-07T16:11:46.148Z,96793.44
2023-03-07T16:14:25.975Z,96784.97
2023-03-07T16:16:59.449Z,96786.41
2023-03-07T16:19:26.891Z,96779.34
2023-03-07T16:21:53.544Z,96778.13
2023-03-07T16:24:20.208Z,96776.75
2023-03-07T16:26:47.949Z,96780.56
2023-03-07T16:29:16.883Z,96777.34
2023-03-07T16:31:43.403Z,96780.19
2023-03-07T16:34:18.569Z,96785.19
2023-03-07T16:36:47.204Z,96782.19
2023-03-07T16:39:14.410Z,96791.22
2023-03-07T16:41:49.576Z,96797.44
2023-03-07T16:44:18.987Z,96792.03
2023-03-07T16:46:51.446Z,96804.53
2023-03-07T16:49:18.494Z,96802.31
2023-03-07T16:51:48.958Z,96795.06
2023-03-07T16:54:20.613Z,96803.09
2023-03-07T16:56:53.597Z,96805.13
2023-03-07T16:59:22.569Z,96808.34
2023-03-07T17:01:51.775Z,96810.56
2023-03-07T17:04:18.333Z,96822.03
2023-03-07T17:06:47.309Z,96820.00
2023-03-07T17:09:15.277Z,96816.38
2023-03-07T17:11:51.685Z,96812.97
2023-03-07T17:14:19.260Z,96820.41
2023-03-07T17:16:48.835Z,96827.66
2023-03-07T17:19:30.229Z,96836.50
2023-03-07T17:22:01.070Z,96840.75
2023-03-07T17:24:29.095Z,96830.88
2023-03-07T17:26:58.323Z,96841.34
2023-03-07T17:29:34.981Z,96855.22
2023-03-07T17:32:01.507Z,96849.41
2023-03-07T17:34:31.230Z,96863.06
2023-03-07T17:36:58.655Z,96862.88
2023-03-07T17:39:25.315Z,96857.66
2023-03-07T17:41:51.805Z,96861.03
2023-03-07T17:44:18.264Z,96865.91
2023-03-07T17:46:44.802Z,96864.09
2023-03-07T17:49:11.400Z,96869.09
2023-03-07T17:51:37.887Z,96864.06
2023-03-07T17:54:06.652Z,96875.75
2023-03-07T17:56:33.104Z,96873.94
2023-03-07T17:59:01.508Z,96869.69
2023-03-07T18:01:32.673Z,96870.09
2023-03-07T18:03:59.972Z,96868.69
2023-03-07T18:06:26.912Z,96871.69
2023-03-07T18:08:53.584Z,96874.31
2023-03-07T18:11:20.199Z,96878.97
2023-03-07T18:13:46.818Z,96880.75
2023-03-07T18:16:13.409Z,96876.91
2023-03-07T18:18:50.569Z,96882.31
2023-03-07T18:21:24.580Z,96891.19
2023-03-07T18:23:52.127Z,96890.94
2023-03-07T18:26:19.966Z,96880.50
2023-03-07T18:28:48.391Z,96889.16
2023-03-07T18:31:19.933Z,96891.19
2023-03-07T18:33:50.872Z,96899.63
2023-03-07T18:36:18.176Z,96893.00
2023-03-07T18:38:44.926Z,96896.41
2023-03-07T18:41:14.893Z,96889.75
2023-03-07T18:43:41.944Z,96888.78
2023-03-07T18:46:11.268Z,96888.56
2023-03-07T18:48:38.038Z,96886.72
2023-03-07T18:51:13.377Z,96889.38
2023-03-07T18:53:40.268Z,96888.75
2023-03-07T18:56:09.570Z,96888.16
2023-03-07T18:58:36.886Z,96887.56
2023-03-07T19:01:10.568Z,96894.00
2023-03-07T19:03:37.061Z,96900.03
2023-03-07T19:06:03.779Z,96896.63
2023-03-07T19:08:30.382Z,96914.53
2023-03-07T19:10:57.665Z,96905.47
2023-03-07T19:13:24.114Z,96889.00
2023-03-07T19:15:50.550Z,96902.06
2023-03-07T19:18:16.958Z,96918.38
2023-03-07T19:20:43.446Z,96912.72
2023-03-07T19:23:09.975Z,96902.44
2023-03-07T19:25:36.732Z,96910.53
2023-03-07T19:28:03.331Z,96908.13
2023-03-07T19:30:29.854Z,96908.94
2023-03-07T19:32:58.767Z,96905.28
2023-03-07T19:35:25.211Z,96909.94
2023-03-07T19:37:51.637Z,96913.94
2023-03-07T19:40:18.291Z,96915.59
2023-03-07T19:42:44.736Z,96925.00
2023-03-07T19:45:11.339Z,96927.81
2023-03-07T19:47:37.882Z,96927.81
2023-03-07T19:50:04.632Z,96927.44
2023-03-07T19:52:31.119Z,96932.84
2023-03-07T19:54:57.597Z,96934.88
2023-03-07T19:57:24.098Z,96937.06
2023-03-07T19:59:53.789Z,96937.66
2023-03-07T20:02:20.683Z,96944.28
2023-03-07T20:04:47.172Z,96944.88
2023-03-07T20:07:13.674Z,96945.28
2023-03-07T20:09:40.149Z,96958.38
2023-03-07T20:12:08.989Z,96948.91
2023-03-07T20:14:42.422Z,96948.31
2023-03-07T20:17:10.781Z,96957.13
2023-03-07T20:19:38.352Z,96955.13
2023-03-07T20:22:05.665Z,96940.88
2023-03-07T20:24:33.172Z,96955.31
2023-03-07T20:27:00.345Z,96941.03
2023-03-07T20:29:26.876Z,96952.13
2023-03-07T20:31:53.547Z,96945.63
2023-03-07T20:34:20.548Z,96939.66
2023-03-07T20:36:47.255Z,96949.69
2023-03-07T20:39:14.567Z,96948.66
2023-03-07T20:41:42.765Z,96953.28
2023-03-07T20:44:12.889Z,96956.72
2023-03-07T20:46:39.871Z,96956.31
2023-03-07T20:49:06.438Z,96964.34
2023-03-07T20:51:35.421Z,96971.41
2023-03-07T20:54:05.036Z,96962.75
2023-03-07T20:56:33.181Z,96973.00
2023-03-07T20:59:00.187Z,96969.81
2023-03-07T21:01:29.585Z,96971.41
2023-03-07T21:03:59.127Z,96968.00
2023-03-07T21:06:25.622Z,96964.78
2023-03-07T21:08:52.332Z,96972.59
2023-03-07T21:11:20.598Z,96962.75
2023-03-07T21:13:49.167Z,96960.53
2023-03-07T21:16:18.810Z,96965.53
2023-03-07T21:18:45.733Z,96962.94
2023-03-07T21:21:15.149Z,96968.75
2023-03-07T21:23:41.748Z,96974.59
2023-03-07T21:26:22.400Z,96977.22
2023-03-07T21:28:53.059Z,96981.84
2023-03-07T21:31:25.603Z,96980.00
2023-03-07T21:33:57.559Z,96983.88
2023-03-07T21:36:27.059Z,96981.63
2023-03-07T21:38:54.368Z,96983.47
2023-03-07T21:41:27.240Z,96972.75
2023-03-07T21:43:58.043Z,96967.34
2023-03-07T21:46:25.924Z,96971.13
2023-03-07T21:48:52.857Z,96977.97
2023-03-07T21:51:20.364Z,96974.13
2023-03-07T21:53:47.101Z,96981.38
2023-03-07T21:56:18.703Z,96979.19
2023-03-07T21:58:49.708Z,96981.97
2023-03-07T22:01:21.963Z,96980.94
2023-03-07T22:03:51.492Z,96979.09
2023-03-07T22:06:18.108Z,96973.69
2023-03-07T22:08:44.756Z,96969.44
2023-03-07T22:11:12.855Z,96977.53
2023-03-07T22:13:41.359Z,96985.97
2023-03-07T22:16:12.368Z,96989.22
2023-03-07T22:18:39.012Z,96987.78
2023-03-07T22:21:07.865Z,96984.53
2023-03-07T22:23:35.253Z,96992.16
2023-03-07T22:26:07.228Z,96993.03
2023-03-07T22:28:34.757Z,96998.84
2023-03-07T22:31:06.819Z,97002.59
2023-03-07T22:33:33.617Z,97005.34
2023-03-07T22:36:02.282Z,97014.28
2023-03-07T22:38:29.152Z,96996.38
2023-03-07T22:41:04.230Z,96992.63
2023-03-07T22:43:32.645Z,96996.28
2023-03-07T22:45:59.470Z,96996.72
2023-03-07T22:48:26.808Z,97000.31
2023-03-07T22:50:54.173Z,97002.88
2023-03-07T22:53:20.931Z,96996.72
2023-03-07T22:55:47.433Z,96998.41
2023-03-07T22:58:14.218Z,97002.09
2023-03-07T23:00:42.594Z,97000.22
2023-03-07T23:03:09.236Z,96998.09
2023-03-07T23:05:36.367Z,97006.69
2023-03-07T23:08:03.876Z,97003.03
2023-03-07T23:10:31.150Z,97006.88
2023-03-07T23:12:57.781Z,97006.03
2023-03-07T23:15:24.698Z,97010.63
2023-03-07T23:17:51.301Z,97007.03
2023-03-07T23:20:18.933Z,96991.94
2023-03-07T23:22:46.153Z,96997.16
2023-03-07T23:25:13.608Z,96992.97
2023-03-07T23:27:40.161Z,97001.00
2023-03-07T23:30:07.201Z,97008.69
2023-03-07T23:32:33.707Z,97006.16
2023-03-07T23:35:00.471Z,97003.03
2023-03-07T23:37:26.955Z,97007.47
2023-03-07T23:39:53.475Z,97017.31
2023-03-07T23:42:19.981Z,97013.22
2023-03-07T23:44:49.831Z,97019.31
2023-03-07T23:47:16.845Z,97014.94
2023-03-07T23:49:43.335Z,97009.72
2023-03-07T23:52:09.801Z,97021.34
2023-03-07T23:54:36.277Z,97015.16
2023-03-07T23:57:02.886Z,97017.31
2023-03-07T23:59:29.342Z,97016.19
